createdAt,value
2018-03-24T00:02:00.448Z,40.63
2018-03-24T00:04:28.013Z,33.42
2018-03-24T00:06:56.284Z,40.25
2018-03-24T00:09:24.603Z,42.03
2018-03-24T00:11:52.119Z,40.72
2018-03-24T00:14:19.626Z,39.58
2018-03-24T00:16:47.932Z,33.28
2018-03-24T00:19:15.464Z,35.42
2018-03-24T00:21:42.982Z,34.97
2018-03-24T00:24:11.269Z,37.05
2018-03-24T00:26:39.535Z,36.30
2018-03-24T00:29:07.811Z,35.53
2018-03-24T00:31:36.079Z,37.33
2018-03-24T00:34:04.415Z,41.85
2018-03-24T00:36:31.902Z,40.88
2018-03-24T00:38:59.400Z,41.58
2018-03-24T00:41:26.918Z,35.10
2018-03-24T00:43:54.568Z,38.50
2018-03-24T00:46:22.092Z,33.88
2018-03-24T00:48:49.624Z,31.40
2018-03-24T00:51:17.920Z,32.72
2018-03-24T00:53:45.490Z,36.35
2018-03-24T00:56:12.988Z,35.40
2018-03-24T00:58:40.504Z,36.17
2018-03-24T01:01:08.037Z,30.77
2018-03-24T01:03:36.305Z,41.80
2018-03-24T01:06:04.566Z,39.25
2018-03-24T01:08:32.087Z,36.70
2018-03-24T01:10:59.591Z,34.42
2018-03-24T01:13:27.903Z,35.85
2018-03-24T01:15:55.395Z,36.00
2018-03-24T01:18:22.907Z,32.05
2018-03-24T01:20:50.519Z,30.30
2018-03-24T01:23:18.035Z,32.25
2018-03-24T01:25:45.559Z,29.63
2018-03-24T01:28:13.831Z,31.23
2018-03-24T01:30:42.099Z,28.20
2018-03-24T01:33:09.623Z,32.90
2018-03-24T01:35:37.155Z,31.67
2018-03-24T01:38:04.677Z,30.42
2018-03-24T01:40:32.215Z,34.92
2018-03-24T01:42:59.771Z,34.33
2018-03-24T01:45:27.279Z,31.05
2018-03-24T01:47:55.571Z,37.40
2018-03-24T01:50:23.085Z,33.53
2018-03-24T01:52:50.601Z,32.85
2018-03-24T01:55:18.099Z,43.97
2018-03-24T01:57:45.631Z,35.70
2018-03-24T02:00:13.167Z,38.22
2018-03-24T02:02:40.658Z,42.08
2018-03-24T02:05:08.184Z,37.70
2018-03-24T02:07:35.690Z,39.15
2018-03-24T02:10:03.248Z,37.08
2018-03-24T02:12:30.745Z,41.20
2018-03-24T02:14:59.046Z,33.92
2018-03-24T02:17:26.534Z,36.97
2018-03-24T02:19:54.044Z,32.50
2018-03-24T02:22:21.560Z,30.30
2018-03-24T02:24:51.575Z,32.75
2018-03-24T02:27:19.086Z,33.72
2018-03-24T02:29:46.586Z,32.60
2018-03-24T02:32:14.128Z,32.60
2018-03-24T02:34:41.636Z,33.20
2018-03-24T02:37:09.960Z,32.38
2018-03-24T02:39:37.494Z,36.63
2018-03-24T02:42:05.006Z,36.00
2018-03-24T02:44:32.588Z,33.78
2018-03-24T02:47:00.859Z,35.42
2018-03-24T02:49:29.143Z,40.35
2018-03-24T02:51:57.426Z,36.78
2018-03-24T02:54:25.690Z,38.85
2018-03-24T02:56:54.021Z,41.28
2018-03-24T02:59:21.599Z,40.72
2018-03-24T03:01:49.104Z,37.58
2018-03-24T03:04:17.410Z,40.20
2018-03-24T03:06:44.937Z,38.80
2018-03-24T03:09:12.458Z,41.33
2018-03-24T03:11:39.963Z,42.88
2018-03-24T03:14:07.487Z,41.05
2018-03-24T03:16:34.981Z,38.60
2018-03-24T03:19:02.498Z,38.00
2018-03-24T03:21:56.847Z,38.85
2018-03-24T03:24:24.335Z,42.17
2018-03-24T03:26:51.865Z,36.78
2018-03-24T03:29:19.387Z,40.90
2018-03-24T03:31:50.104Z,43.08
2018-03-24T03:34:17.616Z,42.28
2018-03-24T03:36:45.123Z,54.85
2018-03-24T03:39:13.418Z,36.72
2018-03-24T03:41:40.956Z,47.40
2018-03-24T03:44:08.471Z,45.97
2018-03-24T03:46:35.989Z,115.80
2018-03-24T03:49:03.502Z,231.18
2018-03-24T03:51:31.026Z,94.13
2018-03-24T03:53:58.546Z,201.07
2018-03-24T03:56:26.091Z,98.07
2018-03-24T03:58:53.617Z,50.08
2018-03-24T04:01:21.160Z,41.95
2018-03-24T04:03:48.667Z,55.25
2018-03-24T04:06:16.174Z,44.58
2018-03-24T04:08:43.692Z,111.32
2018-03-24T04:11:11.227Z,41.33
2018-03-24T04:13:38.727Z,39.78
2018-03-24T04:16:07.021Z,39.78
2018-03-24T04:18:34.516Z,37.30
2018-03-24T04:21:02.087Z,39.33
2018-03-24T04:23:29.586Z,40.80
2018-03-24T04:25:57.862Z,39.97
2018-03-24T04:28:25.403Z,40.83
2018-03-24T04:30:53.687Z,37.30
2018-03-24T04:33:21.998Z,41.35
2018-03-24T04:35:49.519Z,34.78
2018-03-24T04:38:17.817Z,40.78
2018-03-24T04:40:45.342Z,42.08
2018-03-24T04:43:12.855Z,43.28
2018-03-24T04:45:40.368Z,42.10
2018-03-24T04:48:07.892Z,42.50
2018-03-24T04:50:35.390Z,44.22
2018-03-24T04:53:03.698Z,47.42
2018-03-24T04:55:31.972Z,46.60
2018-03-24T04:57:59.477Z,47.13
2018-03-24T05:00:26.975Z,51.20
2018-03-24T05:02:54.481Z,48.75
2018-03-24T05:05:22.008Z,48.25
2018-03-24T05:07:49.505Z,48.72
2018-03-24T05:10:17.069Z,50.55
2018-03-24T05:12:44.607Z,47.90
2018-03-24T05:15:12.098Z,50.30
2018-03-24T05:17:39.634Z,43.85
2018-03-24T05:20:07.136Z,47.70
2018-03-24T05:22:34.663Z,49.17
2018-03-24T05:25:02.234Z,51.15
2018-03-24T05:27:29.748Z,49.90
2018-03-24T05:29:57.250Z,46.72
2018-03-24T05:32:25.569Z,50.67
2018-03-24T05:34:53.104Z,48.33
2018-03-24T05:37:21.371Z,49.90
2018-03-24T05:39:49.666Z,48.87
2018-03-24T05:42:17.169Z,55.30
2018-03-24T05:44:44.708Z,45.55
2018-03-24T05:47:12.232Z,49.03
2018-03-24T05:49:40.494Z,45.88
2018-03-24T05:52:08.777Z,49.55
2018-03-24T05:54:37.119Z,46.28
2018-03-24T05:57:04.636Z,44.85
2018-03-24T05:59:32.126Z,48.70
2018-03-24T06:01:59.635Z,48.33
2018-03-24T06:04:27.896Z,54.15
2018-03-24T06:06:55.431Z,50.88
2018-03-24T06:09:22.940Z,49.00
2018-03-24T06:11:50.473Z,51.50
2018-03-24T06:14:17.965Z,49.97
2018-03-24T06:16:45.572Z,54.15
2018-03-24T06:19:13.085Z,53.38
2018-03-24T06:21:40.592Z,56.70
2018-03-24T06:24:08.123Z,47.13
2018-03-24T06:26:35.646Z,50.63
2018-03-24T06:29:03.930Z,50.22
2018-03-24T06:34:31.636Z,52.70
2018-03-24T06:37:14.796Z,53.90
2018-03-24T06:39:42.350Z,54.53
2018-03-24T06:42:09.845Z,56.85
2018-03-24T06:44:38.134Z,55.75
2018-03-24T06:47:05.651Z,58.47
2018-03-24T06:49:33.172Z,57.75
2018-03-24T06:52:00.696Z,63.22
2018-03-24T06:54:28.982Z,55.67
2018-03-24T06:56:56.486Z,64.60
2018-03-24T06:59:24.018Z,56.08
2018-03-24T07:01:51.532Z,67.28
2018-03-24T07:04:19.855Z,65.72
2018-03-24T07:06:47.370Z,66.82
2018-03-24T07:09:15.708Z,63.53
2018-03-24T07:11:43.217Z,58.80
2018-03-24T07:14:10.743Z,59.97
2018-03-24T07:16:38.240Z,61.55
2018-03-24T07:19:05.768Z,63.25
2018-03-24T07:21:33.278Z,63.20
2018-03-24T07:24:00.855Z,66.47
2018-03-24T07:26:28.426Z,66.43
2018-03-24T07:28:55.974Z,74.05
2018-03-24T07:31:23.483Z,70.78
2018-03-24T07:33:51.761Z,73.57
2018-03-24T07:36:20.042Z,71.53
2018-03-24T07:38:48.338Z,76.25
2018-03-24T07:41:15.866Z,70.53
2018-03-24T07:43:44.218Z,65.87
2018-03-24T07:46:11.798Z,73.82
2018-03-24T07:48:39.347Z,69.28
2018-03-24T07:51:06.836Z,70.53
2018-03-24T07:53:34.417Z,77.95
2018-03-24T07:56:01.930Z,76.37
2018-03-24T07:58:29.504Z,70.72
2018-03-24T08:00:57.816Z,70.40
2018-03-24T08:03:25.364Z,71.10
2018-03-24T08:05:52.903Z,68.57
2018-03-24T08:08:20.443Z,63.42
2018-03-24T08:10:48.764Z,66.87
2018-03-24T08:13:16.270Z,61.15
2018-03-24T08:15:43.830Z,66.97
2018-03-24T08:18:11.367Z,60.08
2018-03-24T08:20:38.879Z,62.72
2018-03-24T08:23:06.398Z,61.50
2018-03-24T08:25:33.921Z,63.42
2018-03-24T08:28:01.450Z,66.57
2018-03-24T08:30:29.026Z,61.42
2018-03-24T08:32:57.254Z,61.63
2018-03-24T08:35:24.807Z,64.90
2018-03-24T08:37:52.348Z,59.65
2018-03-24T08:40:19.885Z,62.62
2018-03-24T08:42:47.432Z,57.17
2018-03-24T08:45:14.954Z,59.65
2018-03-24T08:47:42.499Z,54.13
2018-03-24T08:50:10.084Z,59.28
2018-03-24T08:52:38.375Z,56.58
2018-03-24T08:55:05.925Z,55.85
2018-03-24T08:57:34.223Z,52.10
2018-03-24T09:00:01.740Z,54.05
2018-03-24T09:02:29.300Z,52.58
2018-03-24T09:04:56.834Z,59.65
2018-03-24T09:07:24.369Z,51.28
2018-03-24T09:09:51.919Z,50.45
2018-03-24T09:12:19.536Z,49.88
2018-03-24T09:14:47.044Z,47.83
2018-03-24T09:17:14.573Z,48.90
2018-03-24T09:19:42.895Z,48.37
2018-03-24T09:22:10.474Z,45.50
2018-03-24T09:24:37.999Z,47.47
2018-03-24T09:27:05.564Z,45.63
2018-03-24T09:29:33.116Z,43.87
2018-03-24T09:32:00.649Z,46.77
2018-03-24T09:34:28.918Z,46.30
2018-03-24T09:36:57.219Z,47.13
2018-03-24T09:39:24.769Z,43.57
2018-03-24T09:41:53.090Z,42.97
2018-03-24T09:44:20.620Z,40.43
2018-03-24T09:46:48.134Z,39.57
2018-03-24T09:49:15.648Z,41.67
2018-03-24T09:51:43.188Z,38.23
2018-03-24T09:54:10.784Z,37.53
2018-03-24T09:56:38.287Z,41.60
2018-03-24T09:59:06.622Z,38.93
2018-03-24T10:01:34.161Z,46.20
2018-03-24T10:04:01.700Z,36.13
2018-03-24T10:06:29.236Z,35.70
2018-03-24T10:08:57.549Z,33.67
2018-03-24T10:11:25.870Z,38.10
2018-03-24T10:13:53.435Z,36.50
2018-03-24T10:16:20.972Z,35.00
2018-03-24T10:18:49.276Z,36.10
2018-03-24T10:24:24.189Z,35.23
2018-03-24T10:26:51.708Z,34.73
2018-03-24T10:29:20.020Z,34.27
2018-03-24T10:31:47.619Z,32.87
2018-03-24T10:34:15.154Z,32.83
2018-03-24T10:36:42.711Z,30.50
2018-03-24T10:39:10.269Z,26.00
2018-03-24T10:41:37.778Z,28.10
2018-03-24T10:44:06.074Z,26.47
2018-03-24T10:46:33.640Z,29.90
2018-03-24T10:49:01.158Z,28.27
2018-03-24T10:51:28.686Z,24.73
2018-03-24T10:53:56.991Z,27.60
2018-03-24T10:56:24.536Z,29.80
2018-03-24T10:58:52.096Z,34.50
2018-03-24T11:01:25.139Z,27.90
2018-03-24T11:03:52.654Z,26.77
2018-03-24T11:06:20.166Z,25.00
2018-03-24T11:08:47.708Z,27.33
2018-03-24T11:11:15.244Z,29.10
2018-03-24T11:13:43.542Z,24.10
2018-03-24T11:16:11.887Z,27.13
2018-03-24T11:18:39.423Z,24.87
2018-03-24T11:21:06.957Z,26.07
2018-03-24T11:23:34.514Z,23.00
2018-03-24T11:26:02.045Z,26.07
2018-03-24T11:28:30.352Z,22.77
2018-03-24T11:30:57.901Z,24.17
2018-03-24T11:33:25.454Z,25.57
2018-03-24T11:35:52.979Z,28.73
2018-03-24T11:38:20.507Z,27.13
2018-03-24T11:40:48.036Z,27.20
2018-03-24T11:43:15.565Z,27.60
2018-03-24T11:45:43.865Z,25.20
2018-03-24T11:48:11.409Z,25.00
2018-03-24T11:50:39.720Z,25.30
2018-03-24T11:53:07.250Z,24.90
2018-03-24T11:55:35.585Z,22.87
2018-03-24T11:58:03.182Z,23.83
2018-03-24T12:00:31.472Z,23.67
2018-03-24T12:02:59.838Z,29.40
2018-03-24T12:05:28.158Z,25.07
2018-03-24T12:07:55.672Z,23.57
2018-03-24T12:10:24.005Z,28.93
2018-03-24T12:12:51.513Z,26.70
2018-03-24T12:15:19.049Z,24.73
2018-03-24T12:17:46.570Z,27.53
2018-03-24T12:20:14.111Z,24.50
2018-03-24T12:22:41.671Z,24.37
2018-03-24T12:25:09.204Z,23.30
2018-03-24T12:27:37.532Z,22.00
2018-03-24T12:30:05.058Z,22.60
2018-03-24T12:32:32.572Z,22.03
2018-03-24T12:35:00.095Z,22.50
2018-03-24T12:37:27.667Z,25.03
2018-03-24T12:39:55.189Z,26.73
2018-03-24T12:42:22.727Z,24.33
2018-03-24T12:44:51.064Z,22.50
2018-03-24T12:47:18.595Z,22.67
2018-03-24T12:49:46.184Z,24.90
2018-03-24T12:52:13.721Z,25.37
2018-03-24T12:54:41.282Z,23.63
2018-03-24T12:57:08.862Z,25.27
2018-03-24T12:59:36.407Z,24.23
2018-03-24T13:02:04.633Z,26.00
2018-03-24T13:04:32.912Z,22.90
2018-03-24T13:07:01.190Z,24.03
2018-03-24T13:09:28.762Z,24.37
2018-03-24T13:11:56.279Z,22.80
2018-03-24T13:14:23.842Z,22.77
2018-03-24T13:16:51.380Z,19.90
2018-03-24T13:19:19.026Z,21.30
2018-03-24T13:21:46.555Z,19.70
2018-03-24T13:24:14.872Z,17.30
2018-03-24T13:26:42.413Z,18.37
2018-03-24T13:29:09.942Z,17.60
2018-03-24T13:31:38.235Z,18.90
2018-03-24T13:34:05.832Z,17.60
2018-03-24T13:36:33.368Z,18.07
2018-03-24T13:39:00.886Z,18.13
2018-03-24T13:41:28.448Z,17.77
2018-03-24T13:43:56.020Z,19.30
2018-03-24T13:46:24.316Z,17.93
2018-03-24T13:48:51.953Z,17.03
2018-03-24T13:51:19.526Z,17.63
2018-03-24T13:53:47.922Z,15.13
2018-03-24T13:56:15.472Z,17.17
2018-03-24T13:58:43.388Z,16.50
2018-03-24T14:01:12.025Z,16.23
2018-03-24T14:03:39.882Z,16.73
2018-03-24T14:06:07.419Z,17.67
2018-03-24T14:08:35.737Z,16.23
2018-03-24T14:11:03.312Z,16.90
2018-03-24T14:13:30.826Z,13.93
2018-03-24T14:15:59.134Z,16.03
2018-03-24T14:18:27.441Z,16.07
2018-03-24T14:20:54.988Z,15.03
2018-03-24T14:23:22.517Z,16.97
2018-03-24T14:25:50.040Z,15.57
2018-03-24T14:28:17.585Z,16.80
2018-03-24T14:30:45.090Z,14.83
2018-03-24T14:33:12.628Z,15.67
2018-03-24T14:35:40.170Z,14.23
2018-03-24T14:38:07.706Z,14.83
2018-03-24T14:40:35.430Z,16.90
2018-03-24T14:43:02.982Z,14.00
2018-03-24T14:45:31.299Z,15.00
2018-03-24T14:47:58.892Z,14.87
2018-03-24T14:50:26.416Z,14.80
2018-03-24T14:52:53.967Z,13.67
2018-03-24T14:55:21.520Z,13.53
2018-03-24T14:57:49.052Z,14.40
2018-03-24T15:00:16.622Z,13.73
2018-03-24T15:02:44.161Z,15.13
2018-03-24T15:05:12.474Z,14.67
2018-03-24T15:07:40.024Z,14.27
2018-03-24T15:10:07.556Z,14.30
2018-03-24T15:12:35.876Z,13.17
2018-03-24T15:15:03.428Z,14.10
2018-03-24T15:17:30.946Z,17.13
2018-03-24T15:19:58.487Z,14.10
2018-03-24T15:22:25.997Z,16.67
2018-03-24T15:24:53.524Z,14.63
2018-03-24T15:27:21.801Z,14.70
2018-03-24T15:30:02.063Z,13.13
2018-03-24T15:32:42.196Z,14.20
2018-03-24T15:35:21.677Z,13.97
2018-03-24T15:37:49.226Z,14.30
2018-03-24T15:40:17.539Z,15.10
2018-03-24T15:42:45.075Z,18.97
2018-03-24T15:45:12.651Z,16.60
2018-03-24T15:47:40.209Z,15.33
2018-03-24T15:50:07.737Z,15.40
2018-03-24T15:52:35.292Z,17.17
2018-03-24T15:55:03.575Z,15.60
2018-03-24T15:57:31.886Z,16.63
2018-03-24T15:59:59.513Z,16.43
2018-03-24T16:02:27.792Z,15.40
2018-03-24T16:04:56.106Z,18.53
2018-03-24T16:07:23.627Z,17.00
2018-03-24T16:09:51.886Z,17.10
2018-03-24T16:12:20.188Z,20.93
2018-03-24T16:14:47.738Z,18.70
2018-03-24T16:17:16.045Z,18.03
2018-03-24T16:19:43.584Z,17.50
2018-03-24T16:22:11.110Z,19.33
2018-03-24T16:24:38.599Z,25.30
2018-03-24T16:27:06.148Z,16.60
2018-03-24T16:29:33.685Z,17.73
2018-03-24T16:32:02.032Z,16.77
2018-03-24T16:34:29.599Z,19.37
2018-03-24T16:36:57.163Z,19.73
2018-03-24T16:39:24.727Z,16.37
2018-03-24T16:41:52.272Z,16.87
2018-03-24T16:44:19.787Z,17.57
2018-03-24T16:46:47.313Z,21.50
2018-03-24T16:49:14.842Z,23.07
2018-03-24T16:51:42.371Z,17.70
2018-03-24T16:54:09.878Z,17.83
2018-03-24T16:56:37.414Z,18.03
2018-03-24T16:59:04.951Z,18.50
2018-03-24T17:01:32.483Z,24.90
2018-03-24T17:04:00.078Z,17.33
2018-03-24T17:06:27.624Z,16.17
2018-03-24T17:08:55.164Z,17.40
2018-03-24T17:11:23.451Z,17.57
2018-03-24T17:13:51.040Z,19.87
2018-03-24T17:16:18.599Z,16.50
2018-03-24T17:18:46.144Z,15.90
2018-03-24T17:21:13.682Z,18.30
2018-03-24T17:23:41.949Z,19.80
2018-03-24T17:26:10.417Z,18.40
2018-03-24T17:28:38.009Z,16.83
2018-03-24T17:31:05.556Z,17.30
2018-03-24T17:33:33.098Z,20.30
2018-03-24T17:36:02.050Z,17.03
2018-03-24T17:38:29.633Z,20.13
2018-03-24T17:40:57.167Z,17.90
2018-03-24T17:43:24.732Z,18.97
2018-03-24T17:45:53.117Z,19.87
2018-03-24T17:48:20.965Z,19.50
2018-03-24T17:50:48.592Z,19.73
2018-03-24T17:53:16.145Z,17.70
2018-03-24T17:55:44.655Z,19.20
2018-03-24T17:58:13.170Z,19.10
2018-03-24T18:00:40.981Z,18.80
2018-03-24T18:03:08.570Z,18.83
2018-03-24T18:05:36.123Z,18.73
2018-03-24T18:08:03.848Z,17.50
2018-03-24T18:10:31.874Z,18.07
2018-03-24T18:12:59.462Z,25.33
2018-03-24T18:15:26.985Z,20.90
2018-03-24T18:17:55.190Z,24.03
2018-03-24T18:20:23.079Z,25.47
2018-03-24T18:22:50.806Z,20.03
2018-03-24T18:25:18.613Z,20.30
2018-03-24T18:27:46.143Z,19.13
2018-03-24T18:30:13.672Z,20.60
2018-03-24T18:32:41.707Z,17.60
2018-03-24T18:35:09.682Z,18.27
2018-03-24T18:37:37.266Z,17.50
2018-03-24T18:40:04.809Z,18.33
2018-03-24T18:42:32.470Z,18.57
2018-03-24T18:45:00.602Z,16.50
2018-03-24T18:47:28.190Z,21.13
2018-03-24T18:49:55.807Z,19.77
2018-03-24T18:52:23.365Z,19.97
2018-03-24T18:54:51.379Z,17.87
2018-03-24T18:57:19.370Z,20.03
2018-03-24T18:59:46.940Z,20.67
2018-03-24T19:02:14.476Z,20.60
2018-03-24T19:04:42.861Z,20.43
2018-03-24T19:07:10.970Z,21.27
2018-03-24T19:09:39.728Z,20.53
2018-03-24T19:12:07.301Z,23.50
2018-03-24T19:14:35.801Z,21.17
2018-03-24T19:17:03.566Z,21.27
2018-03-24T19:19:31.883Z,24.67
2018-03-24T19:21:59.865Z,22.07
2018-03-24T19:24:28.304Z,24.60
2018-03-24T19:26:55.819Z,26.57
2018-03-24T19:29:24.194Z,23.67
2018-03-24T19:31:51.702Z,24.73
2018-03-24T19:34:19.357Z,24.90
2018-03-24T19:36:46.997Z,30.00
2018-03-24T19:39:14.557Z,23.67
2018-03-24T19:41:42.117Z,25.63
2018-03-24T19:44:09.789Z,34.50
2018-03-24T19:46:37.794Z,29.67
2018-03-24T19:49:05.422Z,27.67
2018-03-24T19:51:32.929Z,31.43
2018-03-24T19:54:01.264Z,28.73
2018-03-24T19:56:29.052Z,29.33
2018-03-24T19:58:56.776Z,32.07
2018-03-24T20:01:25.128Z,30.10
2018-03-24T20:03:52.633Z,29.47
2018-03-24T20:06:20.228Z,30.60
2018-03-24T20:08:49.097Z,30.60
2018-03-24T20:11:16.637Z,32.73
2018-03-24T20:13:44.180Z,29.87
2018-03-24T20:16:11.718Z,32.47
2018-03-24T20:18:39.391Z,34.07
2018-03-24T20:21:06.944Z,33.27
2018-03-24T20:23:34.468Z,33.70
2018-03-24T20:26:02.808Z,34.67
2018-03-24T20:28:30.360Z,35.27
2018-03-24T20:30:57.951Z,38.67
2018-03-24T20:33:26.266Z,37.67
2018-03-24T20:35:53.811Z,35.47
2018-03-24T20:38:21.366Z,37.47
2018-03-24T20:40:49.720Z,42.07
2018-03-24T20:43:17.282Z,36.10
2018-03-24T20:45:44.822Z,40.70
2018-03-24T20:48:12.371Z,41.53
2018-03-24T20:50:39.970Z,36.97
2018-03-24T20:53:08.533Z,38.77
2018-03-24T20:55:36.081Z,39.70
2018-03-24T20:58:03.831Z,38.73
2018-03-24T21:00:31.338Z,37.10
2018-03-24T21:03:00.053Z,34.90
2018-03-24T21:05:27.626Z,37.67
2018-03-24T21:07:55.568Z,33.95
2018-03-24T21:10:24.084Z,37.67
2018-03-24T21:12:52.559Z,37.80
2018-03-24T21:15:20.388Z,38.10
2018-03-24T21:17:48.710Z,35.60
2018-03-24T21:20:16.241Z,39.77
2018-03-24T21:22:43.770Z,33.57
2018-03-24T21:25:12.065Z,43.08
2018-03-24T21:27:40.364Z,37.90
2018-03-24T21:30:07.930Z,34.77
2018-03-24T21:32:35.440Z,34.78
2018-03-24T21:35:03.754Z,32.00
2018-03-24T21:37:31.275Z,36.20
2018-03-24T21:39:58.820Z,35.27
2018-03-24T21:42:26.384Z,31.42
2018-03-24T21:44:53.905Z,31.45
2018-03-24T21:47:21.442Z,37.03
2018-03-24T21:49:48.971Z,33.85
2018-03-24T21:52:16.513Z,35.00
2018-03-24T21:54:44.062Z,40.90
2018-03-24T21:57:11.586Z,38.40
2018-03-24T21:59:39.109Z,41.35
2018-03-24T22:02:07.432Z,44.92
2018-03-24T22:04:34.958Z,51.08
2018-03-24T22:07:03.257Z,44.40
2018-03-24T22:09:30.832Z,42.10
2018-03-24T22:11:58.359Z,44.00
2018-03-24T22:14:25.902Z,49.55
2018-03-24T22:16:54.230Z,49.67
2018-03-24T22:19:21.763Z,45.63
2018-03-24T22:21:49.310Z,44.80
2018-03-24T22:24:17.585Z,42.88
2018-03-24T22:26:45.122Z,49.83
2018-03-24T22:29:12.635Z,46.42
2018-03-24T22:31:40.159Z,38.90
2018-03-24T22:34:08.480Z,40.25
2018-03-24T22:36:36.009Z,43.80
2018-03-24T22:39:03.560Z,41.78
2018-03-24T22:41:31.844Z,39.65
2018-03-24T22:43:59.367Z,34.42
2018-03-24T22:46:26.902Z,43.13
2018-03-24T22:48:54.411Z,34.20
2018-03-24T22:51:21.953Z,35.13
2018-03-24T22:53:50.288Z,34.20
2018-03-24T22:56:17.851Z,38.05
2018-03-24T22:58:45.370Z,34.85
2018-03-24T23:01:12.930Z,42.58
2018-03-24T23:03:40.476Z,43.33
2018-03-24T23:06:08.775Z,39.38
2018-03-24T23:08:36.291Z,38.05
2018-03-24T23:11:03.841Z,39.55
2018-03-24T23:13:31.353Z,42.03
2018-03-24T23:15:58.881Z,38.38
2018-03-24T23:18:27.192Z,42.10
2018-03-24T23:20:54.747Z,38.90
2018-03-24T23:23:22.269Z,39.80
2018-03-24T23:25:49.818Z,39.80
2018-03-24T23:28:17.362Z,36.05
2018-03-24T23:30:44.851Z,41.03
2018-03-24T23:33:13.152Z,45.08
2018-03-24T23:35:40.663Z,44.95
2018-03-24T23:38:08.225Z,42.35
2018-03-24T23:40:35.726Z,48.35
2018-03-24T23:43:03.270Z,38.55
2018-03-24T23:45:31.557Z,42.75
2018-03-24T23:47:59.855Z,40.12
2018-03-24T23:50:27.977Z,49.80
2018-03-24T23:52:55.499Z,41.17
2018-03-24T23:55:23.000Z,40.72
2018-03-24T23:57:50.528Z,43.83
